QFA742 YPAD-YSSY
Flight info
| Callsign | QFA742 |
|---|---|
| Flight time | N/A |
| Altitude | 37000 |
| Route | BENDO V255 WG W113 ODALE |
| Aircraft | B738/M-SDE2E3FGHIRWXY/LB1 |
Departure
| Time | 2025-09-10 12:23 |
|---|---|
| Airport | Adelaide International Airport (YPAD) |
Arrival
| Time | N/A |
|---|---|
| Airport | Sydney Kingsford Smith International Airport (YSSY) |
| Time | Latitude | Longitude | Altitude | Speed | Heading |
|---|---|---|---|---|---|
| 2025-09-10 11:51 | -34.94129 | 138.53548 | 24 ft | 0 kts | 319° |
| 2025-09-10 12:15 | -34.94137 | 138.53557 | 27 ft | 3 kts | 310° |
| 2025-09-10 12:15 | -34.94148 | 138.53577 | 26 ft | 3 kts | 299° |
| 2025-09-10 12:15 | -34.94175 | 138.53607 | 27 ft | 3 kts | 339° |
| 2025-09-10 12:16 | -34.94211 | 138.53603 | 24 ft | 1 kts | 49° |
| 2025-09-10 12:18 | -34.94210 | 138.53604 | 24 ft | 1 kts | 49° |
| 2025-09-10 12:19 | -34.94166 | 138.53666 | 23 ft | 6 kts | 50° |
| 2025-09-10 12:19 | -34.94077 | 138.53797 | 25 ft | 17 kts | 50° |
| 2025-09-10 12:20 | -34.93895 | 138.54059 | 26 ft | 15 kts | 54° |
| 2025-09-10 12:20 | -34.94037 | 138.54265 | 28 ft | 14 kts | 167° |
| 2025-09-10 12:21 | -34.94163 | 138.54181 | 28 ft | 0 kts | 230° |
| 2025-09-10 12:21 | -34.94719 | 138.53372 | 23 ft | 126 kts | 230° |
| 2025-09-10 12:22 | -34.95360 | 138.52404 | 235 ft | 157 kts | 231° |
| 2025-09-10 12:22 | -34.96801 | 138.50298 | 1715 ft | 158 kts | 226° |
| 2025-09-10 12:23 | -34.98439 | 138.47961 | 2498 ft | 207 kts | 227° |
| 2025-09-10 12:23 | -35.00381 | 138.45135 | 3654 ft | 223 kts | 227° |
| 2025-09-10 12:24 | -35.02751 | 138.42383 | 4968 ft | 242 kts | 200° |
| 2025-09-10 12:24 | -35.07500 | 138.43887 | 7459 ft | 257 kts | 146° |
| 2025-09-10 12:25 | -35.10133 | 138.46973 | 8998 ft | 275 kts | 121° |
| 2025-09-10 12:25 | -35.10618 | 138.51729 | 10411 ft | 301 kts | 90° |
| 2025-09-10 12:26 | -35.10433 | 138.54400 | 10592 ft | 326 kts | 89° |
| 2025-09-10 12:26 | -35.10011 | 138.60215 | 11241 ft | 358 kts | 89° |
| 2025-09-10 12:27 | -35.09606 | 138.66348 | 12720 ft | 365 kts | 89° |
| 2025-09-10 12:27 | -35.09208 | 138.72599 | 14178 ft | 373 kts | 89° |
| 2025-09-10 12:27 | -35.09005 | 138.75774 | 14902 ft | 376 kts | 89° |
| 2025-09-10 12:28 | -35.09812 | 138.88443 | 17779 ft | 380 kts | 109° |
| 2025-09-10 12:29 | -35.11332 | 138.94701 | 19063 ft | 387 kts | 110° |
| 2025-09-10 12:29 | -35.12837 | 139.01014 | 20319 ft | 391 kts | 110° |
| 2025-09-10 12:30 | -35.13589 | 139.04227 | 20938 ft | 394 kts | 110° |
| 2025-09-10 12:30 | -35.15094 | 139.10727 | 22135 ft | 399 kts | 110° |
| 2025-09-10 12:31 | -35.16612 | 139.17319 | 23246 ft | 405 kts | 110° |
| 2025-09-10 12:31 | -35.18141 | 139.23977 | 24207 ft | 411 kts | 110° |
| 2025-09-10 12:33 | -35.23641 | 139.48085 | 27074 ft | 430 kts | 109° |
| 2025-09-10 12:35 | -35.25640 | 139.74394 | 29485 ft | 455 kts | 98° |
| 2025-09-10 12:37 | -35.27544 | 140.09683 | 32024 ft | 469 kts | 96° |
| 2025-09-10 12:39 | -35.28998 | 140.37814 | 33813 ft | 478 kts | 95° |
| 2025-09-10 12:41 | -35.30603 | 140.70459 | 35496 ft | 485 kts | 95° |
| 2025-09-10 12:43 | -35.32145 | 141.03672 | 37012 ft | 491 kts | 94° |
| 2025-09-10 12:45 | -35.33602 | 141.37053 | 37107 ft | 487 kts | 94° |
| 2025-09-10 12:47 | -35.34959 | 141.70180 | 37100 ft | 490 kts | 94° |
| 2025-09-10 12:49 | -35.36241 | 142.03765 | 37081 ft | 497 kts | 93° |
| 2025-09-10 12:51 | -35.37436 | 142.37544 | 37062 ft | 496 kts | 93° |
| 2025-09-10 12:53 | -35.38490 | 142.69841 | 37041 ft | 493 kts | 92° |
| 2025-09-10 12:55 | -35.39496 | 143.03455 | 37031 ft | 494 kts | 92° |
| 2025-09-10 12:57 | -35.40411 | 143.37154 | 37013 ft | 496 kts | 92° |
| 2025-09-10 12:59 | -35.41235 | 143.70958 | 36996 ft | 496 kts | 91° |
| 2025-09-10 13:01 | -35.41963 | 144.04744 | 36980 ft | 495 kts | 91° |
| 2025-09-10 13:03 | -35.42597 | 144.38471 | 36965 ft | 495 kts | 91° |
| 2025-09-10 13:05 | -35.43139 | 144.72353 | 36931 ft | 497 kts | 91° |
| 2025-09-10 13:07 | -35.43586 | 145.06236 | 36905 ft | 499 kts | 90° |
| 2025-09-10 13:09 | -35.43940 | 145.40309 | 36888 ft | 499 kts | 90° |
| 2025-09-10 13:11 | -35.44198 | 145.74288 | 36867 ft | 497 kts | 90° |
| 2025-09-10 13:13 | -35.44360 | 146.08122 | 36848 ft | 496 kts | 90° |
| 2025-09-10 13:15 | -35.44428 | 146.41941 | 36824 ft | 496 kts | 89° |
| 2025-09-10 13:17 | -35.44402 | 146.75843 | 36806 ft | 497 kts | 89° |
| 2025-09-10 13:19 | -35.44276 | 147.09756 | 36787 ft | 498 kts | 89° |
| 2025-09-10 13:21 | -35.44052 | 147.43703 | 36775 ft | 498 kts | 88° |
| 2025-09-10 13:23 | -35.43732 | 147.77725 | 36765 ft | 498 kts | 88° |
| 2025-09-10 13:25 | -35.43318 | 148.11690 | 36750 ft | 498 kts | 88° |
| 2025-09-10 13:27 | -35.35324 | 148.42479 | 36778 ft | 484 kts | 48° |
| 2025-09-10 13:29 | -35.18718 | 148.68702 | 36790 ft | 488 kts | 48° |
| 2025-09-10 13:31 | -35.02793 | 148.93898 | 36788 ft | 490 kts | 47° |
| 2025-09-10 13:33 | -34.86095 | 149.20121 | 36764 ft | 489 kts | 47° |
| 2025-09-10 13:35 | -34.70336 | 149.47103 | 31612 ft | 489 kts | 59° |
| 2025-09-10 13:37 | -34.58222 | 149.75097 | 26452 ft | 440 kts | 60° |
| 2025-09-10 13:38 | -34.52600 | 149.87867 | 24208 ft | 417 kts | 62° |
| 2025-09-10 13:38 | -34.49915 | 149.93950 | 23121 ft | 406 kts | 62° |
| 2025-09-10 13:39 | -34.47304 | 149.99849 | 22184 ft | 389 kts | 62° |
| 2025-09-10 13:39 | -34.46032 | 150.02720 | 21636 ft | 384 kts | 62° |
| 2025-09-10 13:39 | -34.43543 | 150.08331 | 20556 ft | 376 kts | 62° |
| 2025-09-10 13:40 | -34.39871 | 150.16599 | 18979 ft | 367 kts | 62° |
| 2025-09-10 13:41 | -34.37458 | 150.22021 | 17950 ft | 363 kts | 62° |
| 2025-09-10 13:41 | -34.33915 | 150.29968 | 16373 ft | 354 kts | 62° |
| 2025-09-10 13:42 | -34.32748 | 150.32582 | 15883 ft | 351 kts | 62° |
| 2025-09-10 13:42 | -34.30439 | 150.37749 | 14914 ft | 346 kts | 61° |
| 2025-09-10 13:43 | -34.28159 | 150.42840 | 13966 ft | 348 kts | 61° |
| 2025-09-10 13:43 | -34.26987 | 150.45457 | 13480 ft | 350 kts | 61° |
| 2025-09-10 13:43 | -34.24645 | 150.50697 | 12347 ft | 360 kts | 61° |
| 2025-09-10 13:44 | -34.19950 | 150.61183 | 10484 ft | 344 kts | 60° |
| 2025-09-10 13:45 | -34.18833 | 150.63670 | 10366 ft | 331 kts | 60° |
| 2025-09-10 13:45 | -34.17401 | 150.66861 | 10309 ft | 313 kts | 59° |